createdAt,value
2022-12-04T00:01:08.216Z,5.70
2022-12-04T00:03:35.668Z,5.70
2022-12-04T00:06:13.183Z,5.70
2022-12-04T00:08:40.661Z,5.70
2022-12-04T00:11:09.278Z,5.70
2022-12-04T00:13:37.731Z,5.70
2022-12-04T00:16:06.351Z,5.70
2022-12-04T00:18:33.961Z,5.70
2022-12-04T00:21:05.169Z,5.60
2022-12-04T00:23:32.798Z,5.60
2022-12-04T00:26:05.516Z,5.60
2022-12-04T00:28:33.932Z,5.60
2022-12-04T00:31:04.739Z,5.60
2022-12-04T00:33:31.727Z,5.60
2022-12-04T00:35:59.404Z,5.60
2022-12-04T00:38:27.140Z,5.60
2022-12-04T00:40:54.640Z,5.60
2022-12-04T00:43:22.916Z,5.60
2022-12-04T00:45:50.673Z,5.60
2022-12-04T00:48:17.739Z,5.60
2022-12-04T00:50:44.950Z,5.60
2022-12-04T00:53:12.587Z,5.60
2022-12-04T00:55:40.810Z,5.70
2022-12-04T00:58:08.040Z,5.70
2022-12-04T01:00:36.527Z,5.70
2022-12-04T01:03:04.410Z,5.60
2022-12-04T01:05:32.373Z,5.70
2022-12-04T01:07:59.453Z,5.70
2022-12-04T01:10:26.740Z,5.70
2022-12-04T01:12:53.768Z,5.70
2022-12-04T01:15:20.788Z,5.70
2022-12-04T01:17:47.777Z,5.70
2022-12-04T01:20:15.859Z,5.70
2022-12-04T01:22:42.895Z,5.70
2022-12-04T01:25:10.203Z,5.70
2022-12-04T01:27:37.230Z,5.70
2022-12-04T01:30:05.383Z,5.70
2022-12-04T01:32:32.419Z,5.70
2022-12-04T01:34:59.518Z,5.70
2022-12-04T01:37:26.597Z,5.70
2022-12-04T01:39:53.913Z,5.70
2022-12-04T01:42:21.240Z,5.70
2022-12-04T01:45:26.031Z,5.70
2022-12-04T01:47:57.169Z,5.70
2022-12-04T01:50:24.966Z,5.70
2022-12-04T01:52:52.086Z,5.70
2022-12-04T01:55:19.192Z,5.70
2022-12-04T01:57:47.111Z,5.70
2022-12-04T02:00:16.750Z,5.60
2022-12-04T02:02:46.917Z,5.60
2022-12-04T02:05:17.535Z,5.60
2022-12-04T02:07:47.721Z,5.70
2022-12-04T02:10:17.530Z,5.70
2022-12-04T02:12:51.561Z,5.70
2022-12-04T02:15:48.593Z,5.70
2022-12-04T02:18:24.467Z,5.70
2022-12-04T02:21:06.769Z,5.80
2022-12-04T02:24:01.352Z,5.80
2022-12-04T02:26:50.144Z,5.80
2022-12-04T02:29:34.973Z,5.80
2022-12-04T02:32:29.275Z,5.80
2022-12-04T02:35:01.286Z,5.80
2022-12-04T02:37:37.324Z,5.80
2022-12-04T02:40:10.387Z,5.80
2022-12-04T02:42:50.064Z,5.80
2022-12-04T02:45:31.897Z,5.80
2022-12-04T02:48:02.597Z,5.80
2022-12-04T02:50:31.705Z,5.80
2022-12-04T02:53:07.906Z,5.80
2022-12-04T02:55:44.210Z,5.80
2022-12-04T02:58:35.107Z,5.80
2022-12-04T03:01:18.241Z,5.90
2022-12-04T03:03:57.471Z,5.90
2022-12-04T03:06:27.450Z,5.90
2022-12-04T03:09:01.950Z,5.90
2022-12-04T03:11:34.322Z,6.00
2022-12-04T03:14:14.430Z,6.00
2022-12-04T03:16:42.651Z,6.00
2022-12-04T03:19:10.138Z,6.00
2022-12-04T03:21:41.880Z,6.10
2022-12-04T03:24:37.120Z,6.10
2022-12-04T03:27:09.160Z,6.00
2022-12-04T03:29:41.456Z,6.10
2022-12-04T03:32:13.351Z,6.10
2022-12-04T03:34:46.498Z,6.10
2022-12-04T03:37:20.310Z,6.00
2022-12-04T03:40:30.926Z,6.00
2022-12-04T03:43:14.105Z,6.00
2022-12-04T03:45:53.046Z,6.00
2022-12-04T03:48:28.594Z,6.10
2022-12-04T03:51:12.607Z,6.10
2022-12-04T03:53:52.820Z,6.00
2022-12-04T03:56:40.017Z,6.10
2022-12-04T03:59:20.888Z,6.10
2022-12-04T04:01:51.106Z,6.10
2022-12-04T04:04:36.124Z,6.10
2022-12-04T04:07:13.967Z,6.10
2022-12-04T04:09:45.667Z,6.10
2022-12-04T04:12:18.501Z,6.10
2022-12-04T04:15:32.717Z,6.10
2022-12-04T04:18:20.304Z,6.00
2022-12-04T04:21:19.003Z,6.00
2022-12-04T04:24:09.320Z,6.00
2022-12-04T04:26:42.313Z,6.00
2022-12-04T04:29:11.041Z,6.00
2022-12-04T04:32:13.717Z,6.00
2022-12-04T04:34:54.465Z,6.00
2022-12-04T04:37:30.457Z,6.00
2022-12-04T04:40:15.603Z,6.00
2022-12-04T04:42:51.201Z,6.00
2022-12-04T04:45:35.759Z,6.00
2022-12-04T04:48:28.421Z,6.00
2022-12-04T04:50:55.958Z,6.00
2022-12-04T04:53:31.320Z,6.00
2022-12-04T04:55:59.668Z,6.00
2022-12-04T04:58:26.671Z,6.00
2022-12-04T05:00:58.440Z,6.00
2022-12-04T05:03:26.479Z,6.00
2022-12-04T05:05:53.466Z,6.00
2022-12-04T05:08:20.930Z,6.00
2022-12-04T05:10:48.078Z,5.90
2022-12-04T05:13:15.876Z,6.00
2022-12-04T05:15:43.009Z,6.00
2022-12-04T05:18:10.968Z,5.90
2022-12-04T05:20:41.250Z,5.90
2022-12-04T05:23:08.264Z,5.90
2022-12-04T05:25:35.219Z,5.90
2022-12-04T05:28:02.179Z,5.80
2022-12-04T05:30:29.247Z,5.80
2022-12-04T05:32:56.222Z,5.80
2022-12-04T05:35:23.162Z,5.80
2022-12-04T05:37:50.160Z,5.80
2022-12-04T05:40:17.401Z,5.80
2022-12-04T05:42:44.446Z,5.80
2022-12-04T05:45:11.622Z,5.80
2022-12-04T05:47:43.507Z,5.80
2022-12-04T05:50:12.395Z,5.80
2022-12-04T05:52:39.408Z,5.80
2022-12-04T05:55:07.024Z,5.80
2022-12-04T05:57:34.060Z,5.80
2022-12-04T06:00:01.067Z,5.80
2022-12-04T06:02:28.089Z,5.80
2022-12-04T06:04:55.095Z,5.80
2022-12-04T06:07:22.174Z,5.70
2022-12-04T06:09:49.161Z,5.70
2022-12-04T06:12:16.222Z,5.60
2022-12-04T06:14:43.204Z,5.60
2022-12-04T06:17:10.139Z,5.60
2022-12-04T06:19:37.222Z,5.60
2022-12-04T06:22:04.171Z,5.60
2022-12-04T06:24:31.392Z,5.60
2022-12-04T06:29:46.588Z,5.60
2022-12-04T06:32:19.501Z,5.60
2022-12-04T06:34:53.189Z,5.60
2022-12-04T06:37:21.991Z,5.60
2022-12-04T06:39:49.274Z,5.60
2022-12-04T06:42:16.804Z,5.60
2022-12-04T06:44:43.835Z,5.50
2022-12-04T06:47:11.026Z,5.50
2022-12-04T06:49:38.454Z,5.50
2022-12-04T06:52:05.443Z,5.50
2022-12-04T06:54:32.447Z,5.50
2022-12-04T06:56:59.570Z,5.50
2022-12-04T06:59:26.697Z,5.50
2022-12-04T07:01:53.692Z,5.50
2022-12-04T07:04:21.130Z,5.50
2022-12-04T07:06:48.104Z,5.40
2022-12-04T07:09:17.154Z,5.40
2022-12-04T07:11:45.356Z,5.40
2022-12-04T07:14:13.459Z,5.40
2022-12-04T07:16:42.365Z,5.40
2022-12-04T07:19:14.257Z,5.40
2022-12-04T07:21:42.548Z,5.30
2022-12-04T07:24:16.404Z,5.30
2022-12-04T07:26:43.560Z,5.30
2022-12-04T07:29:10.905Z,5.30
2022-12-04T07:31:38.767Z,5.30
2022-12-04T07:34:06.055Z,5.30
2022-12-04T07:36:33.133Z,5.30
2022-12-04T07:39:00.303Z,5.30
2022-12-04T07:41:27.300Z,5.30
2022-12-04T07:43:55.037Z,5.30
2022-12-04T07:46:25.531Z,5.30
2022-12-04T07:48:53.028Z,5.30
2022-12-04T07:51:22.680Z,5.30
2022-12-04T07:53:51.452Z,5.30
2022-12-04T07:56:19.256Z,5.30
2022-12-04T07:58:46.941Z,5.20
2022-12-04T08:01:17.798Z,5.20
2022-12-04T08:03:48.453Z,5.20
2022-12-04T08:06:19.198Z,5.20
2022-12-04T08:08:47.457Z,5.20
2022-12-04T08:11:17.959Z,5.20
2022-12-04T08:13:45.504Z,5.30
2022-12-04T08:16:13.478Z,5.30
2022-12-04T08:18:41.728Z,5.30
2022-12-04T08:21:14.395Z,5.30
2022-12-04T08:23:43.930Z,5.30
2022-12-04T08:26:11.933Z,5.30
2022-12-04T08:28:40.288Z,5.30
2022-12-04T08:31:13.134Z,5.30
2022-12-04T08:33:41.193Z,5.30
2022-12-04T08:36:10.347Z,5.20
2022-12-04T08:38:37.577Z,5.30
2022-12-04T08:41:07.229Z,5.30
2022-12-04T08:43:35.149Z,5.30
2022-12-04T08:46:08.149Z,5.30
2022-12-04T08:48:35.366Z,5.30
2022-12-04T08:51:04.506Z,5.30
2022-12-04T08:53:32.536Z,5.30
2022-12-04T08:56:01.735Z,5.30
2022-12-04T08:58:29.402Z,5.30
2022-12-04T09:01:00.256Z,5.30
2022-12-04T09:03:30.979Z,5.20
2022-12-04T09:06:04.520Z,5.20
2022-12-04T09:08:33.597Z,5.20
2022-12-04T09:11:09.745Z,5.20
2022-12-04T09:13:44.026Z,5.20
2022-12-04T09:16:15.414Z,5.20
2022-12-04T09:18:46.941Z,5.20
2022-12-04T09:21:17.042Z,5.20
2022-12-04T09:23:45.897Z,5.20
2022-12-04T09:26:29.410Z,5.20
2022-12-04T09:29:00.357Z,5.30
2022-12-04T09:31:28.463Z,5.20
2022-12-04T09:34:01.266Z,5.30
2022-12-04T09:36:29.625Z,5.30
2022-12-04T09:38:59.350Z,5.30
2022-12-04T09:41:45.340Z,5.20
2022-12-04T09:44:29.172Z,5.20
2022-12-04T09:47:14.812Z,5.10
2022-12-04T09:50:08.896Z,5.10
2022-12-04T09:52:56.932Z,5.10
2022-12-04T09:55:34.207Z,5.00
2022-12-04T09:58:05.444Z,5.00
2022-12-04T10:00:39.135Z,5.00
2022-12-04T10:03:13.098Z,5.00
2022-12-04T10:06:27.826Z,5.00
2022-12-04T10:09:06.299Z,5.00
2022-12-04T10:11:46.576Z,5.00
2022-12-04T10:14:51.112Z,5.00
2022-12-04T10:17:30.854Z,5.00
2022-12-04T10:20:41.492Z,5.00
2022-12-04T10:23:27.414Z,5.00
2022-12-04T10:25:56.017Z,5.00
2022-12-04T10:28:37.131Z,5.00
2022-12-04T10:31:07.887Z,5.00
2022-12-04T10:33:43.907Z,5.00
2022-12-04T10:36:16.771Z,5.10
2022-12-04T10:39:00.519Z,5.10
2022-12-04T10:41:53.164Z,5.10
2022-12-04T10:44:21.034Z,5.10
2022-12-04T10:46:49.589Z,5.10
2022-12-04T10:49:24.307Z,5.10
2022-12-04T10:51:51.322Z,5.00
2022-12-04T10:54:23.078Z,5.00
2022-12-04T10:56:58.739Z,5.00
2022-12-04T10:59:27.355Z,5.00
2022-12-04T11:02:06.735Z,5.00
2022-12-04T11:04:36.071Z,5.00
2022-12-04T11:07:37.308Z,5.00
2022-12-04T11:10:22.128Z,5.00
2022-12-04T11:13:16.608Z,5.10
2022-12-04T11:15:51.571Z,5.10
2022-12-04T11:18:31.112Z,5.10
2022-12-04T11:21:04.805Z,5.20
2022-12-04T11:23:47.597Z,5.20
2022-12-04T11:26:16.975Z,5.30
2022-12-04T11:28:54.069Z,5.30
2022-12-04T11:31:24.656Z,5.30
2022-12-04T11:33:59.347Z,5.30
2022-12-04T11:36:44.929Z,5.30
2022-12-04T11:39:31.657Z,5.30
2022-12-04T11:42:06.847Z,5.30
2022-12-04T11:44:37.391Z,5.30
2022-12-04T11:47:07.412Z,5.30
2022-12-04T11:49:39.525Z,5.20
2022-12-04T11:52:34.747Z,5.20
2022-12-04T11:55:13.121Z,5.30
2022-12-04T11:57:47.139Z,5.30
2022-12-04T12:00:26.551Z,5.30
2022-12-04T12:03:03.725Z,5.30
2022-12-04T12:05:49.574Z,5.30
2022-12-04T12:08:31.705Z,5.20
2022-12-04T12:11:26.790Z,5.30
2022-12-04T12:14:22.854Z,5.30
2022-12-04T12:17:17.775Z,5.20
2022-12-04T12:20:15.838Z,5.20
2022-12-04T12:22:52.306Z,5.20
2022-12-04T12:25:19.334Z,5.20
2022-12-04T12:27:55.582Z,5.20
2022-12-04T12:30:25.147Z,5.10
2022-12-04T12:33:04.406Z,5.10
2022-12-04T12:35:44.975Z,5.10
2022-12-04T12:38:47.817Z,5.10
2022-12-04T12:41:24.101Z,5.00
2022-12-04T12:44:06.489Z,5.10
2022-12-04T12:47:01.958Z,5.10
2022-12-04T12:49:40.175Z,5.00
2022-12-04T12:52:29.365Z,5.00
2022-12-04T12:55:05.357Z,5.00
2022-12-04T12:57:40.306Z,5.00
2022-12-04T13:00:16.490Z,5.00
2022-12-04T13:03:06.529Z,5.10
2022-12-04T13:05:44.149Z,5.10
2022-12-04T13:08:23.383Z,5.10
2022-12-04T13:11:18.102Z,5.00
2022-12-04T13:13:53.243Z,5.00
2022-12-04T13:16:27.137Z,5.00
2022-12-04T13:19:09.279Z,5.00
2022-12-04T13:21:45.636Z,5.00
2022-12-04T13:24:42.707Z,5.00
2022-12-04T13:27:29.274Z,5.10
2022-12-04T13:30:17.306Z,5.00
2022-12-04T13:33:14.642Z,5.00
2022-12-04T13:36:04.151Z,5.00
2022-12-04T13:38:33.886Z,5.10
2022-12-04T13:41:07.109Z,5.10
2022-12-04T13:43:42.016Z,5.10
2022-12-04T13:46:40.377Z,5.10
2022-12-04T13:49:17.872Z,5.10
2022-12-04T13:51:51.486Z,5.10
2022-12-04T13:54:20.994Z,5.10
2022-12-04T13:56:57.956Z,5.00
2022-12-04T13:59:28.367Z,5.00
2022-12-04T14:02:17.218Z,5.00
2022-12-04T14:05:01.284Z,5.00
2022-12-04T14:07:34.016Z,5.00
2022-12-04T14:10:09.298Z,5.10
2022-12-04T14:12:41.573Z,5.00
2022-12-04T14:15:25.145Z,5.00
2022-12-04T14:18:11.225Z,5.00
2022-12-04T14:20:42.629Z,5.00
2022-12-04T14:23:23.192Z,5.00
2022-12-04T14:25:51.622Z,5.00
2022-12-04T14:28:38.662Z,5.00
2022-12-04T14:31:09.232Z,5.00
2022-12-04T14:33:44.440Z,5.00
2022-12-04T14:36:37.632Z,5.00
2022-12-04T14:39:08.217Z,5.00
2022-12-04T14:41:35.619Z,5.00
2022-12-04T14:44:03.639Z,5.00
2022-12-04T14:46:34.623Z,4.90
2022-12-04T14:49:23.594Z,5.00
2022-12-04T14:52:01.802Z,5.00
2022-12-04T14:54:38.387Z,4.90
2022-12-04T14:57:33.717Z,5.00
2022-12-04T15:00:02.182Z,4.90
2022-12-04T15:02:34.741Z,4.90
2022-12-04T15:05:03.567Z,4.90
2022-12-04T15:07:33.699Z,4.80
2022-12-04T15:10:30.060Z,4.80
2022-12-04T15:12:57.511Z,4.80
2022-12-04T15:15:28.615Z,4.80
2022-12-04T15:18:18.132Z,4.80
2022-12-04T15:20:49.201Z,4.80
2022-12-04T15:23:34.278Z,4.80
2022-12-04T15:26:23.342Z,4.80
2022-12-04T15:29:01.689Z,4.90
2022-12-04T15:31:39.349Z,4.90
2022-12-04T15:34:15.327Z,4.90
2022-12-04T15:37:08.101Z,4.90
2022-12-04T15:39:38.654Z,4.90
2022-12-04T15:42:25.205Z,4.90
2022-12-04T15:45:02.441Z,5.00
2022-12-04T15:47:43.449Z,5.00
2022-12-04T15:50:32.530Z,5.00
2022-12-04T15:53:05.956Z,5.00
2022-12-04T15:55:54.898Z,5.00
2022-12-04T15:58:29.805Z,5.00
2022-12-04T16:01:06.815Z,5.00
2022-12-04T16:03:38.179Z,5.00
2022-12-04T16:06:25.269Z,5.00
2022-12-04T16:09:01.122Z,5.00
2022-12-04T16:11:36.098Z,5.00
2022-12-04T16:14:08.689Z,5.00
2022-12-04T16:16:49.080Z,5.00
2022-12-04T16:19:25.690Z,5.00
2022-12-04T16:21:53.647Z,5.00
2022-12-04T16:24:22.294Z,5.00
2022-12-04T16:26:57.626Z,5.00
2022-12-04T16:29:25.566Z,5.00
2022-12-04T16:32:03.231Z,5.00
2022-12-04T16:34:31.788Z,5.00
2022-12-04T16:37:00.460Z,5.00
2022-12-04T16:39:28.447Z,5.00
2022-12-04T16:41:55.893Z,5.00
2022-12-04T16:44:23.814Z,5.00
2022-12-04T16:46:52.588Z,5.00
2022-12-04T16:49:20.163Z,5.00
2022-12-04T16:51:51.607Z,5.00
2022-12-04T16:54:21.789Z,5.00
2022-12-04T16:56:49.748Z,5.00
2022-12-04T16:59:17.383Z,5.00
2022-12-04T17:01:49.091Z,4.90
2022-12-04T17:04:18.554Z,5.00
2022-12-04T17:06:46.876Z,4.90
2022-12-04T17:09:15.611Z,4.90
2022-12-04T17:11:45.568Z,5.00
2022-12-04T17:14:16.156Z,5.00
2022-12-04T17:16:45.846Z,5.00
2022-12-04T17:19:14.721Z,5.00
2022-12-04T17:21:42.356Z,5.00
2022-12-04T17:24:10.426Z,5.00
2022-12-04T17:26:38.548Z,5.00
2022-12-04T17:29:05.991Z,5.00
2022-12-04T17:31:33.597Z,5.00
2022-12-04T17:34:02.807Z,5.00
2022-12-04T17:36:35.256Z,5.00
2022-12-04T17:39:03.309Z,5.00
2022-12-04T17:41:31.238Z,5.00
2022-12-04T17:44:01.726Z,5.00
2022-12-04T17:46:29.734Z,5.00
2022-12-04T17:49:01.579Z,5.00
2022-12-04T17:51:32.731Z,5.00
2022-12-04T17:54:00.158Z,5.00
2022-12-04T17:56:29.282Z,5.00
2022-12-04T17:58:58.132Z,5.00
2022-12-04T18:01:29.975Z,5.00
2022-12-04T18:04:06.986Z,5.00
2022-12-04T18:06:37.788Z,5.00
2022-12-04T18:09:07.343Z,5.00
2022-12-04T18:11:36.959Z,5.00
2022-12-04T18:14:12.894Z,5.00
2022-12-04T18:16:49.565Z,5.00
2022-12-04T18:19:17.521Z,5.00
2022-12-04T18:21:45.090Z,5.00
2022-12-04T18:24:14.694Z,5.00
2022-12-04T18:26:45.348Z,4.90
2022-12-04T18:29:16.284Z,5.00
2022-12-04T18:31:44.336Z,4.90
2022-12-04T18:34:12.494Z,5.00
2022-12-04T18:36:42.894Z,4.90
2022-12-04T18:39:18.562Z,4.90
2022-12-04T18:41:47.554Z,4.90
2022-12-04T18:44:17.076Z,4.90
2022-12-04T18:46:45.095Z,5.00
2022-12-04T18:49:14.337Z,5.00
2022-12-04T18:51:49.167Z,5.00
2022-12-04T18:54:23.351Z,5.00
2022-12-04T18:56:52.663Z,5.00
2022-12-04T18:59:25.643Z,5.00
2022-12-04T19:01:54.755Z,5.00
2022-12-04T19:04:24.551Z,5.10
2022-12-04T19:06:55.067Z,5.00
2022-12-04T19:09:47.135Z,5.00
2022-12-04T19:12:14.435Z,5.10
2022-12-04T19:14:45.976Z,5.00
2022-12-04T19:17:14.222Z,5.10
2022-12-04T19:19:43.643Z,5.10
2022-12-04T19:22:11.677Z,5.10
2022-12-04T19:24:40.071Z,5.10
2022-12-04T19:27:12.387Z,5.10
2022-12-04T19:29:42.103Z,5.10
2022-12-04T19:32:12.644Z,5.10
2022-12-04T19:34:41.372Z,5.10
2022-12-04T19:37:09.460Z,5.10
2022-12-04T19:39:38.880Z,5.10
2022-12-04T19:42:08.124Z,5.10
2022-12-04T19:44:52.236Z,5.10
2022-12-04T19:47:20.368Z,5.10
2022-12-04T19:49:48.934Z,5.20
2022-12-04T19:52:17.842Z,5.20
2022-12-04T19:54:47.948Z,5.20
2022-12-04T19:57:16.961Z,5.20
2022-12-04T19:59:46.812Z,5.20
2022-12-04T20:02:18.291Z,5.20
2022-12-04T20:04:55.549Z,5.20
2022-12-04T20:07:25.354Z,5.20
2022-12-04T20:09:55.790Z,5.20
2022-12-04T20:12:25.349Z,5.30
2022-12-04T20:14:54.989Z,5.30
2022-12-04T20:17:23.121Z,5.30
2022-12-04T20:19:52.036Z,5.30
2022-12-04T20:22:21.506Z,5.30
2022-12-04T20:24:49.559Z,5.20
2022-12-04T20:27:17.750Z,5.20
2022-12-04T20:29:45.544Z,5.20
2022-12-04T20:32:13.903Z,5.30
2022-12-04T20:34:43.807Z,5.20
2022-12-04T20:37:11.929Z,5.30
2022-12-04T20:39:40.979Z,5.30
2022-12-04T20:42:10.481Z,5.30
2022-12-04T20:44:38.364Z,5.30
2022-12-04T20:47:06.218Z,5.30
2022-12-04T20:49:34.751Z,5.30
2022-12-04T20:52:03.001Z,5.30
2022-12-04T20:54:30.444Z,5.30
2022-12-04T20:56:58.243Z,5.20
2022-12-04T20:59:27.424Z,5.20
2022-12-04T21:01:56.822Z,5.20
2022-12-04T21:04:24.553Z,5.20
2022-12-04T21:06:52.398Z,5.20
2022-12-04T21:09:23.494Z,5.20
2022-12-04T21:11:55.055Z,5.20
2022-12-04T21:14:50.958Z,5.20
2022-12-04T21:17:19.738Z,5.20
2022-12-04T21:19:49.849Z,5.20
2022-12-04T21:22:18.718Z,5.20
2022-12-04T21:24:47.440Z,5.20
2022-12-04T21:27:20.472Z,5.20
2022-12-04T21:29:48.434Z,5.20
2022-12-04T21:32:15.994Z,5.20
2022-12-04T21:34:43.169Z,5.20
2022-12-04T21:37:10.174Z,5.20
2022-12-04T21:39:37.473Z,5.30
2022-12-04T21:42:23.306Z,5.30
2022-12-04T21:44:50.302Z,5.30
2022-12-04T21:47:17.322Z,5.30
2022-12-04T21:49:44.316Z,5.30
2022-12-04T21:52:11.294Z,5.30
2022-12-04T21:54:38.342Z,5.40
2022-12-04T21:57:05.342Z,5.40
2022-12-04T21:59:32.472Z,5.40
2022-12-04T22:01:59.576Z,5.40
2022-12-04T22:04:27.045Z,5.40
2022-12-04T22:06:54.048Z,5.50
2022-12-04T22:09:21.134Z,5.50
2022-12-04T22:11:48.255Z,5.50
2022-12-04T22:14:15.412Z,5.50
2022-12-04T22:16:43.419Z,5.50
2022-12-04T22:19:12.251Z,5.50
2022-12-04T22:21:39.900Z,5.60
2022-12-04T22:24:07.520Z,5.60
2022-12-04T22:26:34.627Z,5.60
2022-12-04T22:29:03.161Z,5.60
2022-12-04T22:31:32.553Z,5.60
2022-12-04T22:34:01.587Z,5.60
2022-12-04T22:36:32.863Z,5.60
2022-12-04T22:39:15.482Z,5.60
2022-12-04T22:41:42.561Z,5.70
2022-12-04T22:44:09.526Z,5.70
2022-12-04T22:46:36.612Z,5.70
2022-12-04T22:49:03.743Z,5.70
2022-12-04T22:51:30.911Z,5.70
2022-12-04T22:53:58.616Z,5.70
2022-12-04T22:56:31.181Z,5.70
2022-12-04T22:58:59.599Z,5.80
2022-12-04T23:01:31.554Z,5.80
2022-12-04T23:03:59.687Z,5.80
2022-12-04T23:06:29.013Z,5.80
2022-12-04T23:09:13.011Z,5.80
2022-12-04T23:11:40.903Z,5.80
2022-12-04T23:14:11.586Z,5.80
2022-12-04T23:16:40.164Z,5.80
2022-12-04T23:19:09.472Z,5.80
2022-12-04T23:21:36.434Z,5.80
2022-12-04T23:24:04.019Z,5.80
2022-12-04T23:26:42.587Z,5.80
2022-12-04T23:29:29.620Z,5.80
2022-12-04T23:31:57.487Z,5.80
2022-12-04T23:34:24.756Z,5.80
2022-12-04T23:36:51.708Z,5.80
2022-12-04T23:39:18.666Z,5.80
2022-12-04T23:41:45.655Z,5.80
2022-12-04T23:44:12.678Z,5.80
2022-12-04T23:46:40.120Z,5.80
2022-12-04T23:49:07.101Z,5.80
2022-12-04T23:51:34.105Z,5.80
2022-12-04T23:54:01.161Z,5.80
2022-12-04T23:56:28.948Z,5.80
2022-12-04T23:58:58.472Z,5.80
